sensor_id;sensor_type;location;lat;lon;timestamp;P1;durP1;ratioP1;P2;durP2;ratioP2
37781;SDS011;23621;50.878;4.584;2024-01-07T00:00:09;12.35;;;11.15;;
37781;SDS011;23621;50.878;4.584;2024-01-07T00:02:10;13.95;;;11.73;;
37781;SDS011;23621;50.878;4.584;2024-01-07T00:04:10;11.90;;;10.80;;
37781;SDS011;23621;50.878;4.584;2024-01-07T00:06:11;12.98;;;11.70;;
37781;SDS011;23621;50.878;4.584;2024-01-07T00:08:12;13.80;;;12.43;;
37781;SDS011;23621;50.878;4.584;2024-01-07T00:10:12;12.80;;;11.50;;
37781;SDS011;23621;50.878;4.584;2024-01-07T00:12:13;12.13;;;10.93;;
37781;SDS011;23621;50.878;4.584;2024-01-07T00:14:15;12.30;;;11.10;;
37781;SDS011;23621;50.878;4.584;2024-01-07T00:16:16;12.75;;;11.55;;
37781;SDS011;23621;50.878;4.584;2024-01-07T00:18:17;13.30;;;11.98;;
37781;SDS011;23621;50.878;4.584;2024-01-07T00:20:18;12.23;;;11.02;;
37781;SDS011;23621;50.878;4.584;2024-01-07T00:22:19;11.82;;;10.73;;
37781;SDS011;23621;50.878;4.584;2024-01-07T00:24:19;13.32;;;12.13;;
37781;SDS011;23621;50.878;4.584;2024-01-07T00:26:20;12.88;;;11.68;;
37781;SDS011;23621;50.878;4.584;2024-01-07T00:28:21;12.93;;;11.63;;
37781;SDS011;23621;50.878;4.584;2024-01-07T00:30:21;13.13;;;11.93;;
37781;SDS011;23621;50.878;4.584;2024-01-07T00:32:22;13.07;;;11.68;;
37781;SDS011;23621;50.878;4.584;2024-01-07T00:34:23;13.15;;;11.88;;
37781;SDS011;23621;50.878;4.584;2024-01-07T00:36:24;12.85;;;11.55;;
37781;SDS011;23621;50.878;4.584;2024-01-07T00:38:24;13.55;;;12.25;;
37781;SDS011;23621;50.878;4.584;2024-01-07T00:40:25;13.18;;;11.98;;
37781;SDS011;23621;50.878;4.584;2024-01-07T00:42:26;13.38;;;12.07;;
37781;SDS011;23621;50.878;4.584;2024-01-07T00:44:27;13.57;;;12.27;;
37781;SDS011;23621;50.878;4.584;2024-01-07T00:46:28;13.75;;;12.43;;
37781;SDS011;23621;50.878;4.584;2024-01-07T00:48:28;13.00;;;11.70;;
37781;SDS011;23621;50.878;4.584;2024-01-07T00:50:29;13.95;;;12.63;;
37781;SDS011;23621;50.878;4.584;2024-01-07T00:52:30;13.43;;;12.13;;
37781;SDS011;23621;50.878;4.584;2024-01-07T00:54:30;12.10;;;11.02;;
37781;SDS011;23621;50.878;4.584;2024-01-07T00:56:31;13.45;;;12.05;;
37781;SDS011;23621;50.878;4.584;2024-01-07T00:58:32;14.63;;;12.38;;
37781;SDS011;23621;50.878;4.584;2024-01-07T01:00:33;13.52;;;12.18;;
37781;SDS011;23621;50.878;4.584;2024-01-07T01:02:34;12.90;;;11.65;;
37781;SDS011;23621;50.878;4.584;2024-01-07T01:04:38;14.63;;;13.20;;
37781;SDS011;23621;50.878;4.584;2024-01-07T01:06:40;13.80;;;12.60;;
37781;SDS011;23621;50.878;4.584;2024-01-07T01:08:40;14.65;;;13.25;;
37781;SDS011;23621;50.878;4.584;2024-01-07T01:10:41;16.13;;;14.77;;
37781;SDS011;23621;50.878;4.584;2024-01-07T01:12:42;15.02;;;13.63;;
37781;SDS011;23621;50.878;4.584;2024-01-07T01:14:43;14.65;;;13.18;;
37781;SDS011;23621;50.878;4.584;2024-01-07T01:16:44;14.07;;;12.73;;
37781;SDS011;23621;50.878;4.584;2024-01-07T01:18:45;14.32;;;12.95;;
37781;SDS011;23621;50.878;4.584;2024-01-07T01:20:45;14.27;;;12.88;;
37781;SDS011;23621;50.878;4.584;2024-01-07T01:22:46;13.90;;;12.48;;
37781;SDS011;23621;50.878;4.584;2024-01-07T01:24:47;13.73;;;12.43;;
37781;SDS011;23621;50.878;4.584;2024-01-07T01:26:49;13.73;;;12.43;;
37781;SDS011;23621;50.878;4.584;2024-01-07T01:28:49;13.10;;;11.90;;
37781;SDS011;23621;50.878;4.584;2024-01-07T01:30:50;13.73;;;12.50;;
37781;SDS011;23621;50.878;4.584;2024-01-07T01:32:51;14.93;;;13.45;;
37781;SDS011;23621;50.878;4.584;2024-01-07T01:34:52;13.98;;;12.68;;
37781;SDS011;23621;50.878;4.584;2024-01-07T01:36:52;14.45;;;12.98;;
37781;SDS011;23621;50.878;4.584;2024-01-07T01:38:54;13.13;;;11.93;;
37781;SDS011;23621;50.878;4.584;2024-01-07T01:40:54;13.02;;;11.73;;
37781;SDS011;23621;50.878;4.584;2024-01-07T01:42:55;13.52;;;12.20;;
37781;SDS011;23621;50.878;4.584;2024-01-07T01:44:56;14.13;;;12.73;;
37781;SDS011;23621;50.878;4.584;2024-01-07T01:46:59;13.63;;;12.30;;
37781;SDS011;23621;50.878;4.584;2024-01-07T01:49:01;13.35;;;12.05;;
37781;SDS011;23621;50.878;4.584;2024-01-07T01:51:02;13.48;;;12.18;;
37781;SDS011;23621;50.878;4.584;2024-01-07T01:53:03;13.82;;;12.48;;
37781;SDS011;23621;50.878;4.584;2024-01-07T01:55:04;12.90;;;11.60;;
37781;SDS011;23621;50.878;4.584;2024-01-07T01:57:05;13.27;;;11.88;;
37781;SDS011;23621;50.878;4.584;2024-01-07T01:59:06;13.75;;;12.15;;
37781;SDS011;23621;50.878;4.584;2024-01-07T02:01:07;13.15;;;11.75;;
37781;SDS011;23621;50.878;4.584;2024-01-07T02:03:08;12.65;;;11.35;;
37781;SDS011;23621;50.878;4.584;2024-01-07T02:05:09;13.90;;;12.60;;
37781;SDS011;23621;50.878;4.584;2024-01-07T02:07:10;13.10;;;11.80;;
37781;SDS011;23621;50.878;4.584;2024-01-07T02:09:10;15.05;;;12.02;;
37781;SDS011;23621;50.878;4.584;2024-01-07T02:11:14;11.75;;;10.65;;
37781;SDS011;23621;50.878;4.584;2024-01-07T02:13:16;13.68;;;12.32;;
37781;SDS011;23621;50.878;4.584;2024-01-07T02:15:16;13.40;;;12.05;;
37781;SDS011;23621;50.878;4.584;2024-01-07T02:17:17;13.00;;;11.75;;
37781;SDS011;23621;50.878;4.584;2024-01-07T02:19:19;13.45;;;12.25;;
37781;SDS011;23621;50.878;4.584;2024-01-07T02:21:21;12.95;;;11.75;;
37781;SDS011;23621;50.878;4.584;2024-01-07T02:23:22;13.27;;;11.98;;
37781;SDS011;23621;50.878;4.584;2024-01-07T02:25:23;14.15;;;12.75;;
37781;SDS011;23621;50.878;4.584;2024-01-07T02:27:24;12.35;;;11.15;;
37781;SDS011;23621;50.878;4.584;2024-01-07T02:29:24;12.68;;;11.48;;
37781;SDS011;23621;50.878;4.584;2024-01-07T02:31:25;14.93;;;13.48;;
37781;SDS011;23621;50.878;4.584;2024-01-07T02:33:26;16.05;;;14.45;;
37781;SDS011;23621;50.878;4.584;2024-01-07T02:35:28;16.70;;;15.02;;
37781;SDS011;23621;50.878;4.584;2024-01-07T02:37:28;17.52;;;15.73;;
37781;SDS011;23621;50.878;4.584;2024-01-07T02:39:29;17.35;;;15.65;;
37781;SDS011;23621;50.878;4.584;2024-01-07T02:41:30;18.08;;;16.27;;
37781;SDS011;23621;50.878;4.584;2024-01-07T02:43:30;18.63;;;16.73;;
37781;SDS011;23621;50.878;4.584;2024-01-07T02:45:31;19.65;;;17.65;;
37781;SDS011;23621;50.878;4.584;2024-01-07T02:47:32;19.73;;;17.50;;
37781;SDS011;23621;50.878;4.584;2024-01-07T02:49:32;18.73;;;16.83;;
37781;SDS011;23621;50.878;4.584;2024-01-07T02:51:33;19.50;;;17.40;;
37781;SDS011;23621;50.878;4.584;2024-01-07T02:53:34;19.83;;;17.83;;
37781;SDS011;23621;50.878;4.584;2024-01-07T02:55:35;20.65;;;18.45;;
37781;SDS011;23621;50.878;4.584;2024-01-07T02:57:35;21.02;;;18.85;;
37781;SDS011;23621;50.878;4.584;2024-01-07T02:59:36;21.08;;;18.52;;
37781;SDS011;23621;50.878;4.584;2024-01-07T03:01:37;20.23;;;18.13;;
37781;SDS011;23621;50.878;4.584;2024-01-07T03:03:40;21.58;;;19.38;;
37781;SDS011;23621;50.878;4.584;2024-01-07T03:05:41;20.50;;;18.30;;
37781;SDS011;23621;50.878;4.584;2024-01-07T03:07:41;21.00;;;18.80;;
37781;SDS011;23621;50.878;4.584;2024-01-07T03:09:42;21.13;;;19.02;;
37781;SDS011;23621;50.878;4.584;2024-01-07T03:11:43;21.55;;;19.35;;
37781;SDS011;23621;50.878;4.584;2024-01-07T03:13:43;21.55;;;19.25;;
37781;SDS011;23621;50.878;4.584;2024-01-07T03:15:44;20.95;;;18.85;;
37781;SDS011;23621;50.878;4.584;2024-01-07T03:17:45;24.00;;;18.58;;
37781;SDS011;23621;50.878;4.584;2024-01-07T03:19:45;22.70;;;20.25;;
37781;SDS011;23621;50.878;4.584;2024-01-07T03:21:48;21.63;;;19.27;;
37781;SDS011;23621;50.878;4.584;2024-01-07T03:23:49;21.88;;;19.35;;
37781;SDS011;23621;50.878;4.584;2024-01-07T03:25:51;23.17;;;20.70;;
37781;SDS011;23621;50.878;4.584;2024-01-07T03:27:52;22.38;;;20.15;;
37781;SDS011;23621;50.878;4.584;2024-01-07T03:29:52;22.65;;;20.35;;
37781;SDS011;23621;50.878;4.584;2024-01-07T03:31:53;22.42;;;20.05;;
37781;SDS011;23621;50.878;4.584;2024-01-07T03:33:54;22.95;;;20.55;;
37781;SDS011;23621;50.878;4.584;2024-01-07T03:35:55;23.00;;;19.75;;
37781;SDS011;23621;50.878;4.584;2024-01-07T03:37:55;23.40;;;20.42;;
37781;SDS011;23621;50.878;4.584;2024-01-07T03:39:56;22.40;;;19.95;;
37781;SDS011;23621;50.878;4.584;2024-01-07T03:41:57;22.73;;;20.33;;
37781;SDS011;23621;50.878;4.584;2024-01-07T03:43:57;23.77;;;20.00;;
37781;SDS011;23621;50.878;4.584;2024-01-07T03:45:58;22.80;;;19.23;;
37781;SDS011;23621;50.878;4.584;2024-01-07T03:47:59;24.77;;;20.83;;
37781;SDS011;23621;50.878;4.584;2024-01-07T03:50:00;25.65;;;20.95;;
37781;SDS011;23621;50.878;4.584;2024-01-07T03:52:01;23.00;;;20.25;;
37781;SDS011;23621;50.878;4.584;2024-01-07T03:54:01;24.52;;;21.42;;
37781;SDS011;23621;50.878;4.584;2024-01-07T03:56:02;24.80;;;21.33;;
37781;SDS011;23621;50.878;4.584;2024-01-07T03:58:03;25.63;;;20.77;;
37781;SDS011;23621;50.878;4.584;2024-01-07T04:00:05;25.00;;;21.17;;
37781;SDS011;23621;50.878;4.584;2024-01-07T04:02:08;23.20;;;20.00;;
37781;SDS011;23621;50.878;4.584;2024-01-07T04:04:09;24.70;;;20.52;;
37781;SDS011;23621;50.878;4.584;2024-01-07T04:06:10;22.77;;;20.08;;
37781;SDS011;23621;50.878;4.584;2024-01-07T04:08:11;24.20;;;19.80;;
37781;SDS011;23621;50.878;4.584;2024-01-07T04:10:12;24.25;;;20.80;;
37781;SDS011;23621;50.878;4.584;2024-01-07T04:12:12;24.77;;;20.02;;
37781;SDS011;23621;50.878;4.584;2024-01-07T04:14:14;26.50;;;20.65;;
37781;SDS011;23621;50.878;4.584;2024-01-07T04:16:16;24.17;;;19.92;;
37781;SDS011;23621;50.878;4.584;2024-01-07T04:18:20;25.50;;;20.27;;
37781;SDS011;23621;50.878;4.584;2024-01-07T04:20:20;22.80;;;20.08;;
37781;SDS011;23621;50.878;4.584;2024-01-07T04:22:21;23.35;;;19.67;;
37781;SDS011;23621;50.878;4.584;2024-01-07T04:24:22;25.55;;;20.13;;
37781;SDS011;23621;50.878;4.584;2024-01-07T04:26:23;22.02;;;19.33;;
37781;SDS011;23621;50.878;4.584;2024-01-07T04:28:24;25.25;;;20.33;;
37781;SDS011;23621;50.878;4.584;2024-01-07T04:30:25;24.90;;;20.52;;
37781;SDS011;23621;50.878;4.584;2024-01-07T04:32:25;23.00;;;19.73;;
37781;SDS011;23621;50.878;4.584;2024-01-07T04:34:26;23.50;;;20.10;;
37781;SDS011;23621;50.878;4.584;2024-01-07T04:36:27;23.55;;;20.50;;
37781;SDS011;23621;50.878;4.584;2024-01-07T04:38:27;25.00;;;20.60;;
37781;SDS011;23621;50.878;4.584;2024-01-07T04:40:28;24.08;;;21.30;;
37781;SDS011;23621;50.878;4.584;2024-01-07T04:42:29;24.95;;;20.73;;
37781;SDS011;23621;50.878;4.584;2024-01-07T04:44:29;23.75;;;20.35;;
37781;SDS011;23621;50.878;4.584;2024-01-07T04:46:33;25.73;;;21.17;;
37781;SDS011;23621;50.878;4.584;2024-01-07T04:48:34;24.42;;;20.95;;
37781;SDS011;23621;50.878;4.584;2024-01-07T04:50:35;25.92;;;21.25;;
37781;SDS011;23621;50.878;4.584;2024-01-07T04:52:36;26.83;;;21.88;;
37781;SDS011;23621;50.878;4.584;2024-01-07T04:54:37;25.30;;;21.48;;
37781;SDS011;23621;50.878;4.584;2024-01-07T04:56:38;27.08;;;22.38;;
37781;SDS011;23621;50.878;4.584;2024-01-07T04:58:39;26.15;;;22.23;;
37781;SDS011;23621;50.878;4.584;2024-01-07T05:00:40;26.50;;;21.50;;
37781;SDS011;23621;50.878;4.584;2024-01-07T05:02:41;23.40;;;20.88;;
37781;SDS011;23621;50.878;4.584;2024-01-07T05:04:42;26.00;;;22.30;;
37781;SDS011;23621;50.878;4.584;2024-01-07T05:06:44;25.27;;;21.98;;
37781;SDS011;23621;50.878;4.584;2024-01-07T05:08:44;25.80;;;21.88;;
37781;SDS011;23621;50.878;4.584;2024-01-07T05:10:45;24.85;;;20.85;;
37781;SDS011;23621;50.878;4.584;2024-01-07T05:12:46;24.63;;;20.42;;
37781;SDS011;23621;50.878;4.584;2024-01-07T05:14:46;25.90;;;21.35;;
37781;SDS011;23621;50.878;4.584;2024-01-07T05:16:47;24.50;;;20.90;;
37781;SDS011;23621;50.878;4.584;2024-01-07T05:18:48;25.35;;;21.52;;
37781;SDS011;23621;50.878;4.584;2024-01-07T05:20:49;24.00;;;21.08;;
37781;SDS011;23621;50.878;4.584;2024-01-07T05:22:50;24.33;;;21.65;;
37781;SDS011;23621;50.878;4.584;2024-01-07T05:24:51;26.10;;;21.98;;
37781;SDS011;23621;50.878;4.584;2024-01-07T05:26:52;24.92;;;21.40;;
37781;SDS011;23621;50.878;4.584;2024-01-07T05:28:53;24.70;;;21.17;;
37781;SDS011;23621;50.878;4.584;2024-01-07T05:30:54;25.10;;;22.27;;
37781;SDS011;23621;50.878;4.584;2024-01-07T05:32:54;24.70;;;21.73;;
37781;SDS011;23621;50.878;4.584;2024-01-07T05:34:55;25.63;;;21.27;;
37781;SDS011;23621;50.878;4.584;2024-01-07T05:36:56;25.58;;;22.33;;
37781;SDS011;23621;50.878;4.584;2024-01-07T05:38:56;24.80;;;21.13;;
37781;SDS011;23621;50.878;4.584;2024-01-07T05:40:57;25.40;;;21.00;;
37781;SDS011;23621;50.878;4.584;2024-01-07T05:42:58;24.48;;;21.73;;
37781;SDS011;23621;50.878;4.584;2024-01-07T05:44:58;25.52;;;22.67;;
37781;SDS011;23621;50.878;4.584;2024-01-07T05:46:59;26.10;;;22.55;;
37781;SDS011;23621;50.878;4.584;2024-01-07T05:49:00;26.75;;;23.52;;
37781;SDS011;23621;50.878;4.584;2024-01-07T05:51:01;26.75;;;23.20;;
37781;SDS011;23621;50.878;4.584;2024-01-07T05:53:01;26.27;;;23.27;;
37781;SDS011;23621;50.878;4.584;2024-01-07T05:55:02;25.45;;;22.27;;
37781;SDS011;23621;50.878;4.584;2024-01-07T05:57:04;26.25;;;22.40;;
37781;SDS011;23621;50.878;4.584;2024-01-07T05:59:05;24.90;;;21.55;;
37781;SDS011;23621;50.878;4.584;2024-01-07T06:01:07;26.02;;;22.50;;
37781;SDS011;23621;50.878;4.584;2024-01-07T06:03:10;27.48;;;22.88;;
37781;SDS011;23621;50.878;4.584;2024-01-07T06:05:11;27.63;;;22.88;;
37781;SDS011;23621;50.878;4.584;2024-01-07T06:07:11;28.77;;;23.30;;
37781;SDS011;23621;50.878;4.584;2024-01-07T06:09:12;31.70;;;23.48;;
37781;SDS011;23621;50.878;4.584;2024-01-07T06:11:13;27.35;;;23.15;;
37781;SDS011;23621;50.878;4.584;2024-01-07T06:13:18;26.95;;;23.08;;
37781;SDS011;23621;50.878;4.584;2024-01-07T06:15:19;28.73;;;23.95;;
37781;SDS011;23621;50.878;4.584;2024-01-07T06:17:20;29.25;;;23.60;;
37781;SDS011;23621;50.878;4.584;2024-01-07T06:19:20;27.35;;;23.58;;
37781;SDS011;23621;50.878;4.584;2024-01-07T06:21:21;27.70;;;23.75;;
37781;SDS011;23621;50.878;4.584;2024-01-07T06:23:22;27.83;;;23.35;;
37781;SDS011;23621;50.878;4.584;2024-01-07T06:25:23;28.58;;;22.65;;
37781;SDS011;23621;50.878;4.584;2024-01-07T06:27:26;29.40;;;23.80;;
37781;SDS011;23621;50.878;4.584;2024-01-07T06:29:26;30.00;;;23.50;;
37781;SDS011;23621;50.878;4.584;2024-01-07T06:31:27;28.90;;;22.40;;
37781;SDS011;23621;50.878;4.584;2024-01-07T06:33:28;29.60;;;22.73;;
37781;SDS011;23621;50.878;4.584;2024-01-07T06:35:29;33.08;;;24.08;;
37781;SDS011;23621;50.878;4.584;2024-01-07T06:37:30;28.92;;;22.83;;
37781;SDS011;23621;50.878;4.584;2024-01-07T06:39:31;31.10;;;23.13;;
37781;SDS011;23621;50.878;4.584;2024-01-07T06:41:34;31.77;;;22.73;;
37781;SDS011;23621;50.878;4.584;2024-01-07T06:43:35;32.00;;;22.88;;
37781;SDS011;23621;50.878;4.584;2024-01-07T06:45:36;34.00;;;25.45;;
37781;SDS011;23621;50.878;4.584;2024-01-07T06:47:36;36.00;;;26.95;;
37781;SDS011;23621;50.878;4.584;2024-01-07T06:49:38;36.60;;;23.88;;
37781;SDS011;23621;50.878;4.584;2024-01-07T06:51:39;35.17;;;24.38;;
37781;SDS011;23621;50.878;4.584;2024-01-07T06:53:39;33.47;;;23.02;;
37781;SDS011;23621;50.878;4.584;2024-01-07T06:55:40;33.50;;;23.17;;
37781;SDS011;23621;50.878;4.584;2024-01-07T06:57:41;34.70;;;24.55;;
37781;SDS011;23621;50.878;4.584;2024-01-07T06:59:42;35.53;;;24.58;;
37781;SDS011;23621;50.878;4.584;2024-01-07T07:01:43;34.05;;;24.35;;
37781;SDS011;23621;50.878;4.584;2024-01-07T07:03:44;38.53;;;25.05;;
37781;SDS011;23621;50.878;4.584;2024-01-07T07:05:44;36.95;;;24.95;;
37781;SDS011;23621;50.878;4.584;2024-01-07T07:07:45;30.77;;;24.15;;
37781;SDS011;23621;50.878;4.584;2024-01-07T07:09:46;35.95;;;24.15;;
37781;SDS011;23621;50.878;4.584;2024-01-07T07:11:47;32.50;;;23.92;;
37781;SDS011;23621;50.878;4.584;2024-01-07T07:13:47;34.88;;;24.23;;
37781;SDS011;23621;50.878;4.584;2024-01-07T07:15:48;36.47;;;25.27;;
37781;SDS011;23621;50.878;4.584;2024-01-07T07:17:49;36.75;;;25.75;;
37781;SDS011;23621;50.878;4.584;2024-01-07T07:19:50;37.63;;;25.58;;
37781;SDS011;23621;50.878;4.584;2024-01-07T07:21:50;38.17;;;27.50;;
37781;SDS011;23621;50.878;4.584;2024-01-07T07:23:51;38.13;;;26.52;;
37781;SDS011;23621;50.878;4.584;2024-01-07T07:25:52;39.40;;;27.05;;
37781;SDS011;23621;50.878;4.584;2024-01-07T07:27:53;41.83;;;26.65;;
37781;SDS011;23621;50.878;4.584;2024-01-07T07:29:53;40.42;;;27.38;;
37781;SDS011;23621;50.878;4.584;2024-01-07T07:31:54;35.25;;;25.65;;
37781;SDS011;23621;50.878;4.584;2024-01-07T07:33:55;38.95;;;27.38;;
37781;SDS011;23621;50.878;4.584;2024-01-07T07:35:56;37.38;;;25.80;;
37781;SDS011;23621;50.878;4.584;2024-01-07T07:37:57;36.45;;;26.80;;
37781;SDS011;23621;50.878;4.584;2024-01-07T07:39:57;37.80;;;26.77;;
37781;SDS011;23621;50.878;4.584;2024-01-07T07:41:58;34.78;;;26.13;;
37781;SDS011;23621;50.878;4.584;2024-01-07T07:43:59;42.88;;;29.83;;
37781;SDS011;23621;50.878;4.584;2024-01-07T07:46:00;44.40;;;31.33;;
37781;SDS011;23621;50.878;4.584;2024-01-07T07:48:03;46.97;;;33.08;;
37781;SDS011;23621;50.878;4.584;2024-01-07T07:50:05;48.95;;;35.28;;
37781;SDS011;23621;50.878;4.584;2024-01-07T07:52:07;52.53;;;37.85;;
37781;SDS011;23621;50.878;4.584;2024-01-07T07:54:10;53.65;;;38.20;;
37781;SDS011;23621;50.878;4.584;2024-01-07T07:56:11;52.95;;;37.53;;
37781;SDS011;23621;50.878;4.584;2024-01-07T07:58:12;56.67;;;44.47;;
37781;SDS011;23621;50.878;4.584;2024-01-07T08:00:13;51.45;;;36.65;;
37781;SDS011;23621;50.878;4.584;2024-01-07T08:02:14;48.42;;;35.38;;
37781;SDS011;23621;50.878;4.584;2024-01-07T08:04:15;50.60;;;35.92;;
37781;SDS011;23621;50.878;4.584;2024-01-07T08:06:16;49.88;;;34.75;;
37781;SDS011;23621;50.878;4.584;2024-01-07T08:08:17;44.15;;;34.50;;
37781;SDS011;23621;50.878;4.584;2024-01-07T08:10:17;47.08;;;34.15;;
37781;SDS011;23621;50.878;4.584;2024-01-07T08:12:18;45.60;;;33.53;;
37781;SDS011;23621;50.878;4.584;2024-01-07T08:14:19;45.97;;;32.67;;
37781;SDS011;23621;50.878;4.584;2024-01-07T08:16:19;42.42;;;30.50;;
37781;SDS011;23621;50.878;4.584;2024-01-07T08:18:20;45.28;;;30.48;;
37781;SDS011;23621;50.878;4.584;2024-01-07T08:20:21;43.25;;;31.65;;
37781;SDS011;23621;50.878;4.584;2024-01-07T08:22:21;43.30;;;31.80;;
37781;SDS011;23621;50.878;4.584;2024-01-07T08:24:22;43.03;;;32.25;;
37781;SDS011;23621;50.878;4.584;2024-01-07T08:26:23;42.50;;;31.92;;
37781;SDS011;23621;50.878;4.584;2024-01-07T08:28:23;45.17;;;32.88;;
37781;SDS011;23621;50.878;4.584;2024-01-07T08:30:24;43.22;;;33.05;;
37781;SDS011;23621;50.878;4.584;2024-01-07T08:32:25;41.88;;;32.45;;
37781;SDS011;23621;50.878;4.584;2024-01-07T08:34:26;40.92;;;30.52;;
37781;SDS011;23621;50.878;4.584;2024-01-07T08:36:26;38.05;;;30.23;;
37781;SDS011;23621;50.878;4.584;2024-01-07T08:38:27;37.72;;;29.20;;
37781;SDS011;23621;50.878;4.584;2024-01-07T08:40:28;37.75;;;31.02;;
37781;SDS011;23621;50.878;4.584;2024-01-07T08:42:29;35.20;;;29.60;;
37781;SDS011;23621;50.878;4.584;2024-01-07T08:44:30;37.00;;;29.67;;
37781;SDS011;23621;50.878;4.584;2024-01-07T08:46:31;39.65;;;30.58;;
37781;SDS011;23621;50.878;4.584;2024-01-07T08:48:32;37.92;;;29.75;;
37781;SDS011;23621;50.878;4.584;2024-01-07T08:50:32;35.30;;;28.27;;
37781;SDS011;23621;50.878;4.584;2024-01-07T08:52:33;32.67;;;26.75;;
37781;SDS011;23621;50.878;4.584;2024-01-07T08:54:35;30.10;;;25.10;;
37781;SDS011;23621;50.878;4.584;2024-01-07T08:56:36;30.85;;;25.80;;
37781;SDS011;23621;50.878;4.584;2024-01-07T08:58:36;32.47;;;25.90;;
37781;SDS011;23621;50.878;4.584;2024-01-07T09:00:37;24.92;;;21.58;;
37781;SDS011;23621;50.878;4.584;2024-01-07T09:02:38;28.02;;;23.52;;
37781;SDS011;23621;50.878;4.584;2024-01-07T09:04:40;24.75;;;22.05;;
37781;SDS011;23621;50.878;4.584;2024-01-07T09:06:41;26.85;;;23.10;;
37781;SDS011;23621;50.878;4.584;2024-01-07T09:08:41;24.10;;;20.85;;
37781;SDS011;23621;50.878;4.584;2024-01-07T09:10:42;22.50;;;20.30;;
37781;SDS011;23621;50.878;4.584;2024-01-07T09:12:43;22.77;;;19.85;;
37781;SDS011;23621;50.878;4.584;2024-01-07T09:14:44;22.45;;;18.42;;
37781;SDS011;23621;50.878;4.584;2024-01-07T09:16:44;20.88;;;17.95;;
37781;SDS011;23621;50.878;4.584;2024-01-07T09:18:45;21.77;;;18.30;;
37781;SDS011;23621;50.878;4.584;2024-01-07T09:20:46;21.42;;;18.13;;
37781;SDS011;23621;50.878;4.584;2024-01-07T09:22:47;23.48;;;17.90;;
37781;SDS011;23621;50.878;4.584;2024-01-07T09:24:48;20.50;;;18.30;;
37781;SDS011;23621;50.878;4.584;2024-01-07T09:26:49;20.75;;;18.55;;
37781;SDS011;23621;50.878;4.584;2024-01-07T09:28:51;21.90;;;18.67;;
37781;SDS011;23621;50.878;4.584;2024-01-07T09:30:52;20.30;;;17.88;;
37781;SDS011;23621;50.878;4.584;2024-01-07T09:32:52;21.58;;;19.05;;
37781;SDS011;23621;50.878;4.584;2024-01-07T09:34:53;20.08;;;17.98;;
37781;SDS011;23621;50.878;4.584;2024-01-07T09:36:54;19.05;;;17.00;;
37781;SDS011;23621;50.878;4.584;2024-01-07T09:38:54;18.77;;;16.60;;
37781;SDS011;23621;50.878;4.584;2024-01-07T09:40:55;18.45;;;16.55;;
37781;SDS011;23621;50.878;4.584;2024-01-07T09:42:56;19.08;;;17.13;;
37781;SDS011;23621;50.878;4.584;2024-01-07T09:44:57;19.38;;;17.27;;
37781;SDS011;23621;50.878;4.584;2024-01-07T09:47:02;18.58;;;16.63;;
37781;SDS011;23621;50.878;4.584;2024-01-07T09:49:04;19.27;;;17.27;;
37781;SDS011;23621;50.878;4.584;2024-01-07T09:51:05;18.92;;;17.02;;
37781;SDS011;23621;50.878;4.584;2024-01-07T09:53:11;18.70;;;16.75;;
37781;SDS011;23621;50.878;4.584;2024-01-07T09:55:22;19.33;;;17.23;;
37781;SDS011;23621;50.878;4.584;2024-01-07T09:57:28;20.17;;;18.13;;
37781;SDS011;23621;50.878;4.584;2024-01-07T09:59:29;20.35;;;18.25;;
37781;SDS011;23621;50.878;4.584;2024-01-07T10:01:31;20.83;;;18.63;;
37781;SDS011;23621;50.878;4.584;2024-01-07T10:03:32;21.52;;;19.15;;
37781;SDS011;23621;50.878;4.584;2024-01-07T10:05:33;22.35;;;20.05;;
37781;SDS011;23621;50.878;4.584;2024-01-07T10:07:34;22.02;;;19.80;;
37781;SDS011;23621;50.878;4.584;2024-01-07T10:09:34;22.30;;;19.58;;
37781;SDS011;23621;50.878;4.584;2024-01-07T10:11:35;22.45;;;19.95;;
37781;SDS011;23621;50.878;4.584;2024-01-07T10:13:37;22.38;;;19.52;;
37781;SDS011;23621;50.878;4.584;2024-01-07T10:15:37;24.27;;;21.67;;
37781;SDS011;23621;50.878;4.584;2024-01-07T10:17:39;23.70;;;21.17;;
37781;SDS011;23621;50.878;4.584;2024-01-07T10:19:45;23.90;;;21.40;;
37781;SDS011;23621;50.878;4.584;2024-01-07T10:22:09;25.83;;;22.73;;
37781;SDS011;23621;50.878;4.584;2024-01-07T10:24:12;26.52;;;23.50;;
37781;SDS011;23621;50.878;4.584;2024-01-07T10:26:13;23.83;;;21.33;;
37781;SDS011;23621;50.878;4.584;2024-01-07T10:28:14;26.00;;;22.00;;
37781;SDS011;23621;50.878;4.584;2024-01-07T10:30:17;24.77;;;21.50;;
37781;SDS011;23621;50.878;4.584;2024-01-07T10:32:18;25.10;;;22.23;;
37781;SDS011;23621;50.878;4.584;2024-01-07T10:34:19;23.33;;;20.80;;
37781;SDS011;23621;50.878;4.584;2024-01-07T10:36:26;24.35;;;20.92;;
37781;SDS011;23621;50.878;4.584;2024-01-07T10:38:27;20.38;;;18.23;;
37781;SDS011;23621;50.878;4.584;2024-01-07T10:40:29;22.25;;;19.60;;
37781;SDS011;23621;50.878;4.584;2024-01-07T10:42:31;22.02;;;19.23;;
37781;SDS011;23621;50.878;4.584;2024-01-07T10:44:33;22.30;;;19.65;;
37781;SDS011;23621;50.878;4.584;2024-01-07T10:46:35;20.17;;;17.98;;
37781;SDS011;23621;50.878;4.584;2024-01-07T10:48:37;20.77;;;18.50;;
37781;SDS011;23621;50.878;4.584;2024-01-07T10:50:39;19.52;;;17.42;;
37781;SDS011;23621;50.878;4.584;2024-01-07T10:52:41;19.08;;;17.08;;
37781;SDS011;23621;50.878;4.584;2024-01-07T10:54:42;19.25;;;17.17;;
37781;SDS011;23621;50.878;4.584;2024-01-07T10:56:48;19.42;;;17.10;;
37781;SDS011;23621;50.878;4.584;2024-01-07T11:38:07;22.65;;;17.83;;
37781;SDS011;23621;50.878;4.584;2024-01-07T11:40:08;23.27;;;18.92;;
37781;SDS011;23621;50.878;4.584;2024-01-07T11:42:08;22.98;;;18.08;;
37781;SDS011;23621;50.878;4.584;2024-01-07T11:44:09;25.00;;;18.15;;
37781;SDS011;23621;50.878;4.584;2024-01-07T11:46:12;26.02;;;17.88;;
37781;SDS011;23621;50.878;4.584;2024-01-07T11:48:13;22.17;;;17.88;;
37781;SDS011;23621;50.878;4.584;2024-01-07T11:50:14;24.95;;;17.80;;
37781;SDS011;23621;50.878;4.584;2024-01-07T11:52:15;23.23;;;18.15;;
37781;SDS011;23621;50.878;4.584;2024-01-07T11:54:15;23.83;;;18.70;;
37781;SDS011;23621;50.878;4.584;2024-01-07T11:56:18;22.70;;;18.13;;
37781;SDS011;23621;50.878;4.584;2024-01-07T11:58:19;20.85;;;17.38;;
37781;SDS011;23621;50.878;4.584;2024-01-07T12:00:19;24.00;;;17.98;;
37781;SDS011;23621;50.878;4.584;2024-01-07T12:02:20;22.92;;;17.75;;
37781;SDS011;23621;50.878;4.584;2024-01-07T12:04:21;22.02;;;17.95;;
37781;SDS011;23621;50.878;4.584;2024-01-07T12:06:22;21.27;;;16.92;;
37781;SDS011;23621;50.878;4.584;2024-01-07T12:08:22;19.27;;;16.35;;
37781;SDS011;23621;50.878;4.584;2024-01-07T12:10:24;21.75;;;17.42;;
37781;SDS011;23621;50.878;4.584;2024-01-07T12:12:24;19.35;;;16.48;;
37781;SDS011;23621;50.878;4.584;2024-01-07T12:14:25;18.85;;;16.77;;
37781;SDS011;23621;50.878;4.584;2024-01-07T12:16:26;20.17;;;17.02;;
37781;SDS011;23621;50.878;4.584;2024-01-07T12:18:27;19.80;;;16.27;;
37781;SDS011;23621;50.878;4.584;2024-01-07T12:20:28;20.33;;;17.23;;
37781;SDS011;23621;50.878;4.584;2024-01-07T12:22:28;21.55;;;16.15;;
37781;SDS011;23621;50.878;4.584;2024-01-07T12:24:30;20.42;;;16.40;;
37781;SDS011;23621;50.878;4.584;2024-01-07T12:26:31;17.98;;;15.52;;